createdAt,value
2018-06-20T00:01:42.864Z,99.90
2018-06-20T00:04:10.418Z,99.90
2018-06-20T00:06:37.972Z,99.90
2018-06-20T00:09:05.501Z,99.90
2018-06-20T00:11:33.056Z,99.90
2018-06-20T00:14:00.607Z,99.90
2018-06-20T00:16:29.107Z,99.90
2018-06-20T00:18:56.663Z,99.90
2018-06-20T00:21:24.190Z,99.90
2018-06-20T00:23:51.752Z,99.90
2018-06-20T00:26:21.001Z,99.90
2018-06-20T00:28:48.532Z,99.90
2018-06-20T00:31:16.101Z,99.90
2018-06-20T00:33:43.631Z,99.90
2018-06-20T00:36:13.084Z,99.90
2018-06-20T00:38:42.580Z,99.90
2018-06-20T00:41:10.128Z,99.90
2018-06-20T00:43:37.676Z,99.90
2018-06-20T00:46:05.196Z,99.90
2018-06-20T00:48:32.753Z,99.90
2018-06-20T00:51:00.301Z,99.90
2018-06-20T00:53:27.838Z,99.90
2018-06-20T00:58:52.855Z,99.90
2018-06-20T01:01:20.401Z,99.90
2018-06-20T01:03:47.974Z,99.90
2018-06-20T01:06:15.536Z,99.90
2018-06-20T01:08:43.082Z,99.90
2018-06-20T01:11:10.651Z,99.90
2018-06-20T01:13:38.207Z,99.90
2018-06-20T01:16:06.705Z,99.90
2018-06-20T01:18:34.263Z,99.90
2018-06-20T01:21:01.828Z,99.90
2018-06-20T01:23:29.400Z,99.90
2018-06-20T01:25:56.933Z,99.90
2018-06-20T01:28:24.510Z,99.90
2018-06-20T01:30:52.083Z,99.90
2018-06-20T01:33:19.691Z,99.90
2018-06-20T01:35:47.240Z,99.90
2018-06-20T01:38:14.796Z,99.90
2018-06-20T01:40:42.316Z,99.90
2018-06-20T01:43:10.831Z,99.90
2018-06-20T01:45:38.372Z,99.90
2018-06-20T01:48:06.700Z,99.90
2018-06-20T01:50:34.232Z,99.90
2018-06-20T01:53:01.756Z,99.90
2018-06-20T01:55:29.349Z,99.90
2018-06-20T01:57:56.875Z,99.90
2018-06-20T02:00:24.471Z,99.90
2018-06-20T02:02:52.032Z,99.90
2018-06-20T02:05:19.630Z,99.90
2018-06-20T02:07:47.162Z,99.90
2018-06-20T02:10:14.896Z,99.90
2018-06-20T02:12:43.223Z,99.90
2018-06-20T02:15:10.759Z,99.90
2018-06-20T02:17:38.355Z,99.90
2018-06-20T02:20:05.889Z,99.90
2018-06-20T02:22:33.435Z,99.90
2018-06-20T02:25:00.966Z,99.90
2018-06-20T02:27:28.534Z,99.90
2018-06-20T02:29:58.010Z,99.90
2018-06-20T02:32:25.537Z,99.90
2018-06-20T02:34:53.103Z,99.90
2018-06-20T02:37:20.641Z,99.90
2018-06-20T02:39:48.189Z,99.90
2018-06-20T02:42:16.697Z,99.90
2018-06-20T02:44:44.252Z,99.90
2018-06-20T02:47:11.793Z,99.90
2018-06-20T02:49:39.325Z,99.90
2018-06-20T02:52:06.934Z,99.90
2018-06-20T02:54:34.480Z,99.90
2018-06-20T02:57:02.078Z,99.90
2018-06-20T02:59:29.626Z,99.90
2018-06-20T03:01:57.195Z,99.90
2018-06-20T03:04:24.732Z,99.90
2018-06-20T03:06:53.244Z,99.90
2018-06-20T03:09:21.768Z,99.90
2018-06-20T03:11:49.313Z,99.90
2018-06-20T03:14:16.878Z,99.90
2018-06-20T03:16:44.438Z,99.90
2018-06-20T03:19:12.025Z,99.90
2018-06-20T03:21:40.574Z,99.90
2018-06-20T03:24:08.125Z,99.90
2018-06-20T03:26:36.417Z,99.90
2018-06-20T03:29:03.978Z,99.90
2018-06-20T03:31:31.525Z,99.90
2018-06-20T03:33:59.052Z,99.90
2018-06-20T03:36:26.768Z,99.90
2018-06-20T03:38:54.310Z,99.90
2018-06-20T03:41:21.883Z,99.90
2018-06-20T03:43:49.408Z,99.90
2018-06-20T03:46:17.917Z,99.90
2018-06-20T03:48:45.483Z,99.90
2018-06-20T03:51:13.039Z,99.90
2018-06-20T03:53:40.600Z,99.90
2018-06-20T03:56:09.143Z,99.90
2018-06-20T03:58:37.486Z,99.90
2018-06-20T04:01:05.071Z,99.90
2018-06-20T04:03:33.544Z,99.90
2018-06-20T04:06:01.124Z,99.90
2018-06-20T04:08:29.464Z,99.90
2018-06-20T04:10:57.009Z,99.90
2018-06-20T04:13:24.540Z,99.90
2018-06-20T04:15:52.106Z,99.90
2018-06-20T04:18:19.704Z,99.90
2018-06-20T04:20:47.326Z,99.90
2018-06-20T04:23:14.857Z,99.90
2018-06-20T04:25:42.417Z,99.90
2018-06-20T04:28:09.948Z,99.90
2018-06-20T04:30:39.491Z,99.90
2018-06-20T04:33:07.052Z,99.90
2018-06-20T04:35:35.377Z,99.90
2018-06-20T04:38:02.896Z,99.90
2018-06-20T04:40:30.422Z,99.90
2018-06-20T04:42:57.991Z,99.90
2018-06-20T04:45:26.288Z,99.90
2018-06-20T04:47:53.873Z,99.90
2018-06-20T04:50:21.404Z,99.90
2018-06-20T04:52:49.751Z,99.90
2018-06-20T04:55:17.299Z,99.90
2018-06-20T04:57:44.823Z,99.90
2018-06-20T05:00:12.386Z,99.90
2018-06-20T05:02:39.948Z,99.90
2018-06-20T05:05:07.528Z,99.90
2018-06-20T05:07:35.131Z,99.90
2018-06-20T05:10:02.677Z,99.90
2018-06-20T05:12:30.235Z,99.90
2018-06-20T05:14:57.792Z,99.90
2018-06-20T05:17:25.398Z,99.90
2018-06-20T05:19:52.938Z,99.90
2018-06-20T05:22:20.485Z,99.90
2018-06-20T05:24:48.769Z,99.90
2018-06-20T05:27:17.060Z,99.90
2018-06-20T05:29:44.615Z,99.90
2018-06-20T05:32:12.164Z,99.90
2018-06-20T05:34:42.431Z,99.90
2018-06-20T05:37:09.999Z,99.90
2018-06-20T05:39:37.547Z,99.90
2018-06-20T05:42:11.861Z,99.90
2018-06-20T05:44:43.836Z,99.90
2018-06-20T05:47:12.044Z,99.90
2018-06-20T05:49:39.589Z,99.90
2018-06-20T05:52:07.158Z,99.90
2018-06-20T05:54:35.506Z,99.90
2018-06-20T05:57:03.057Z,99.90
2018-06-20T05:59:32.545Z,99.90
2018-06-20T06:02:00.073Z,99.90
2018-06-20T06:04:28.365Z,99.90
2018-06-20T06:06:57.892Z,99.90
2018-06-20T06:09:25.852Z,99.90
2018-06-20T06:11:53.562Z,99.90
2018-06-20T06:14:21.075Z,99.90
2018-06-20T06:16:48.625Z,99.90
2018-06-20T06:19:16.137Z,99.90
2018-06-20T06:21:44.700Z,99.90
2018-06-20T06:24:12.230Z,99.90
2018-06-20T06:26:39.781Z,99.90
2018-06-20T06:29:07.333Z,99.90
2018-06-20T06:31:34.860Z,99.90
2018-06-20T06:34:02.408Z,99.90
2018-06-20T06:36:31.447Z,99.90
2018-06-20T06:38:59.015Z,99.90
2018-06-20T06:41:26.560Z,99.90
2018-06-20T06:43:54.196Z,99.90
2018-06-20T06:46:21.936Z,99.90
2018-06-20T06:48:49.499Z,99.90
2018-06-20T06:51:17.041Z,99.90
2018-06-20T06:53:44.598Z,99.90
2018-06-20T06:56:13.118Z,99.90
2018-06-20T06:58:40.681Z,99.90
2018-06-20T07:01:08.981Z,99.90
2018-06-20T07:03:36.514Z,99.90
2018-06-20T07:06:06.057Z,99.90
2018-06-20T07:08:33.591Z,99.90
2018-06-20T07:11:01.928Z,99.90
2018-06-20T07:13:29.460Z,99.90
2018-06-20T07:15:57.996Z,99.90
2018-06-20T07:18:26.304Z,99.90
2018-06-20T07:20:53.831Z,99.90
2018-06-20T07:23:22.146Z,99.90
2018-06-20T07:25:49.684Z,99.90
2018-06-20T07:28:17.233Z,99.90
2018-06-20T07:30:45.529Z,99.90
2018-06-20T07:33:13.065Z,99.90
2018-06-20T07:35:41.497Z,99.90
2018-06-20T07:38:08.965Z,99.90
2018-06-20T07:40:36.514Z,99.90
2018-06-20T07:43:04.114Z,99.90
2018-06-20T07:45:31.643Z,99.90
2018-06-20T07:47:59.354Z,99.90
2018-06-20T07:50:26.760Z,99.90
2018-06-20T07:52:54.297Z,99.90
2018-06-20T07:55:21.856Z,99.90
2018-06-20T07:57:49.388Z,99.90
2018-06-20T08:00:16.912Z,99.90
2018-06-20T08:03:12.681Z,99.90
2018-06-20T08:08:40.084Z,99.90
2018-06-20T08:14:20.244Z,99.90
2018-06-20T08:16:47.765Z,99.90
2018-06-20T08:19:22.217Z,99.90
2018-06-20T08:21:49.736Z,99.90
2018-06-20T08:24:18.064Z,99.90
2018-06-20T08:26:45.592Z,99.90
2018-06-20T08:29:13.949Z,99.90
2018-06-20T08:31:42.258Z,99.90
2018-06-20T08:34:09.902Z,99.90
2018-06-20T08:36:37.513Z,99.90
2018-06-20T08:39:05.032Z,99.90
2018-06-20T08:41:32.601Z,99.90
2018-06-20T08:44:00.156Z,99.90
2018-06-20T08:46:27.687Z,99.90
2018-06-20T08:48:55.994Z,99.90
2018-06-20T08:51:23.577Z,99.90
2018-06-20T08:53:51.095Z,99.90
2018-06-20T08:56:18.652Z,99.90
2018-06-20T08:58:46.168Z,99.90
2018-06-20T09:01:14.648Z,99.90
2018-06-20T09:03:42.199Z,99.90
2018-06-20T09:09:21.150Z,99.90
2018-06-20T09:14:47.347Z,99.90
2018-06-20T09:17:20.472Z,99.80
2018-06-20T09:19:48.032Z,99.70
2018-06-20T09:22:16.477Z,99.50
2018-06-20T09:24:44.881Z,99.10
2018-06-20T09:27:14.387Z,99.10
2018-06-20T09:29:41.935Z,99.00
2018-06-20T09:32:10.445Z,99.10
2018-06-20T09:34:39.982Z,98.90
2018-06-20T09:37:08.477Z,98.60
2018-06-20T09:39:36.775Z,98.40
2018-06-20T09:42:04.347Z,98.40
2018-06-20T09:44:31.904Z,98.00
2018-06-20T09:46:59.443Z,98.20
2018-06-20T09:49:27.815Z,97.80
2018-06-20T09:51:55.512Z,97.80
2018-06-20T09:54:23.110Z,97.80
2018-06-20T09:56:50.660Z,97.90
2018-06-20T09:59:18.213Z,97.60
2018-06-20T10:01:51.377Z,97.40
2018-06-20T10:07:13.590Z,97.10
2018-06-20T10:09:41.121Z,97.30
2018-06-20T10:12:08.668Z,97.20
2018-06-20T10:14:36.189Z,97.30
2018-06-20T10:17:03.737Z,97.00
2018-06-20T10:19:32.988Z,97.10
2018-06-20T10:22:01.513Z,97.00
2018-06-20T10:24:29.041Z,97.10
2018-06-20T10:26:56.581Z,97.00
2018-06-20T10:29:25.092Z,96.60
2018-06-20T10:31:52.616Z,96.60
2018-06-20T10:34:20.219Z,96.30
2018-06-20T10:36:47.728Z,96.20
2018-06-20T10:39:15.264Z,96.20
2018-06-20T10:41:42.807Z,96.20
2018-06-20T10:44:11.099Z,96.00
2018-06-20T10:46:45.239Z,96.00
2018-06-20T10:49:12.788Z,96.00
2018-06-20T10:51:41.313Z,95.70
2018-06-20T10:54:08.825Z,95.40
2018-06-20T10:56:36.353Z,95.40
2018-06-20T10:59:09.619Z,95.20
2018-06-20T11:04:38.347Z,95.00
2018-06-20T11:10:19.178Z,94.80
2018-06-20T11:12:47.913Z,95.00
2018-06-20T11:15:15.475Z,95.00
2018-06-20T11:17:43.027Z,94.80
2018-06-20T11:20:10.641Z,94.60
2018-06-20T11:22:40.165Z,94.60
2018-06-20T11:25:07.721Z,94.30
2018-06-20T11:27:35.254Z,94.20
2018-06-20T11:30:03.789Z,94.70
2018-06-20T11:32:31.334Z,93.50
2018-06-20T11:34:58.924Z,93.90
2018-06-20T11:37:27.231Z,93.50
2018-06-20T11:39:54.764Z,93.50
2018-06-20T11:42:23.986Z,92.80
2018-06-20T11:44:51.504Z,92.80
2018-06-20T11:47:24.728Z,93.40
2018-06-20T11:49:52.331Z,93.00
2018-06-20T11:52:19.843Z,92.50
2018-06-20T11:54:49.328Z,92.90
2018-06-20T11:57:16.892Z,92.40
2018-06-20T12:02:56.836Z,92.60
2018-06-20T12:08:24.651Z,91.60
2018-06-20T12:13:57.125Z,91.90
2018-06-20T12:16:24.649Z,90.80
2018-06-20T12:18:57.892Z,91.10
2018-06-20T12:21:31.071Z,90.70
2018-06-20T12:24:04.213Z,90.70
2018-06-20T12:26:38.321Z,90.70
2018-06-20T12:29:11.705Z,90.80
2018-06-20T12:31:46.380Z,89.50
2018-06-20T12:34:19.850Z,89.50
2018-06-20T12:36:53.092Z,87.70
2018-06-20T12:39:20.325Z,86.80
2018-06-20T12:41:47.876Z,87.40
2018-06-20T12:44:17.394Z,87.10
2018-06-20T12:46:45.466Z,87.60
2018-06-20T12:49:13.101Z,87.70
2018-06-20T12:51:40.651Z,85.50
2018-06-20T12:54:08.239Z,86.00
2018-06-20T12:56:35.784Z,83.80
2018-06-20T12:59:03.361Z,83.80
2018-06-20T13:01:30.912Z,85.00
2018-06-20T13:03:58.474Z,83.50
2018-06-20T13:06:26.061Z,82.30
2018-06-20T13:08:54.079Z,82.00
2018-06-20T13:11:22.652Z,81.60
2018-06-20T13:13:50.208Z,81.50
2018-06-20T13:16:17.773Z,80.40
2018-06-20T13:18:46.352Z,78.50
2018-06-20T13:21:14.728Z,79.00
2018-06-20T13:23:53.743Z,78.30
2018-06-20T13:26:23.061Z,75.90
2018-06-20T13:28:50.633Z,75.80
2018-06-20T13:31:26.636Z,75.20
2018-06-20T13:37:07.707Z,72.80
2018-06-20T13:39:40.898Z,73.40
2018-06-20T13:42:08.528Z,73.40
2018-06-20T13:44:36.610Z,74.40
2018-06-20T13:50:01.579Z,74.80
2018-06-20T13:52:29.224Z,74.40
2018-06-20T13:54:56.767Z,72.20
2018-06-20T13:57:25.436Z,72.00
2018-06-20T13:59:52.994Z,71.30
2018-06-20T14:02:20.516Z,71.30
2018-06-20T14:04:48.079Z,71.00
2018-06-20T14:07:15.773Z,69.40
2018-06-20T14:09:44.047Z,68.40
2018-06-20T14:12:11.760Z,67.70
2018-06-20T14:14:40.826Z,64.90
2018-06-20T14:17:08.413Z,64.90
2018-06-20T14:19:36.727Z,63.80
2018-06-20T14:22:04.764Z,63.60
2018-06-20T14:24:33.088Z,59.90
2018-06-20T14:27:00.666Z,59.30
2018-06-20T14:29:28.235Z,59.10
2018-06-20T14:35:11.661Z,57.00
2018-06-20T14:40:39.189Z,56.00
2018-06-20T14:43:06.755Z,55.20
2018-06-20T14:45:35.296Z,53.60
2018-06-20T14:48:02.866Z,53.40
2018-06-20T14:50:30.459Z,53.10
2018-06-20T14:52:58.033Z,53.00
2018-06-20T14:55:25.594Z,52.60
2018-06-20T14:57:53.192Z,51.10
2018-06-20T15:00:20.712Z,51.70
2018-06-20T15:02:49.058Z,50.80
2018-06-20T15:05:16.617Z,50.70
2018-06-20T15:07:44.429Z,49.70
2018-06-20T15:10:12.016Z,50.60
2018-06-20T15:12:39.591Z,51.50
2018-06-20T15:15:07.149Z,51.70
2018-06-20T15:17:34.725Z,52.50
2018-06-20T15:20:02.267Z,51.70
2018-06-20T15:22:29.841Z,51.60
2018-06-20T15:24:57.433Z,50.90
2018-06-20T15:30:44.085Z,51.30
2018-06-20T15:33:28.307Z,51.60
2018-06-20T15:38:51.139Z,49.20
2018-06-20T15:41:19.251Z,50.40
2018-06-20T15:43:46.912Z,48.80
2018-06-20T15:46:14.524Z,46.80
2018-06-20T15:48:42.087Z,45.70
2018-06-20T15:51:09.724Z,45.10
2018-06-20T15:53:37.694Z,46.80
2018-06-20T15:56:05.236Z,46.60
2018-06-20T15:58:32.773Z,45.40
2018-06-20T16:01:01.315Z,44.90
2018-06-20T16:03:28.852Z,44.90
2018-06-20T16:05:56.599Z,44.90
2018-06-20T16:08:24.206Z,44.10
2018-06-20T16:10:52.676Z,43.60
2018-06-20T16:13:20.223Z,44.50
2018-06-20T16:15:47.836Z,46.10
2018-06-20T16:18:15.498Z,46.10
2018-06-20T16:23:55.021Z,45.50
2018-06-20T16:29:41.027Z,46.60
2018-06-20T16:32:10.236Z,46.10
2018-06-20T16:34:37.843Z,46.10
2018-06-20T16:37:05.426Z,46.30
2018-06-20T16:39:32.983Z,46.30
2018-06-20T16:42:00.642Z,46.30
2018-06-20T16:44:28.735Z,47.20
2018-06-20T16:46:56.385Z,47.30
2018-06-20T16:49:24.002Z,48.30
2018-06-20T16:51:52.348Z,47.90
2018-06-20T16:54:21.337Z,48.40
2018-06-20T16:56:48.944Z,48.50
2018-06-20T16:59:17.322Z,49.30
2018-06-20T17:01:44.879Z,49.20
2018-06-20T17:04:13.228Z,50.50
2018-06-20T17:06:42.320Z,51.70
2018-06-20T17:09:09.949Z,51.60
2018-06-20T17:11:37.520Z,52.30
2018-06-20T17:17:20.402Z,57.00
2018-06-20T17:20:08.756Z,58.20
2018-06-20T17:25:31.497Z,62.30
2018-06-20T17:27:59.037Z,64.20
2018-06-20T17:30:26.608Z,64.90
2018-06-20T17:32:54.936Z,66.50
2018-06-20T17:35:22.508Z,66.50
2018-06-20T17:37:50.449Z,66.30
2018-06-20T17:40:18.019Z,66.50
2018-06-20T17:42:45.604Z,66.20
2018-06-20T17:45:13.215Z,66.40
2018-06-20T17:47:41.557Z,66.10
2018-06-20T17:50:09.188Z,66.10
2018-06-20T17:52:36.732Z,66.70
2018-06-20T17:55:04.280Z,66.80
2018-06-20T17:57:32.194Z,67.10
2018-06-20T17:59:59.759Z,67.70
2018-06-20T18:02:27.377Z,67.40
2018-06-20T18:04:54.930Z,67.50
2018-06-20T18:07:28.973Z,67.00
2018-06-20T18:10:02.230Z,67.00
2018-06-20T18:12:30.557Z,66.80
2018-06-20T18:17:51.827Z,67.00
2018-06-20T18:20:19.626Z,67.90
2018-06-20T18:22:48.116Z,68.20
2018-06-20T18:25:15.684Z,69.10
2018-06-20T18:27:43.238Z,69.50
2018-06-20T18:30:10.814Z,68.70
2018-06-20T18:32:38.400Z,68.60
2018-06-20T18:35:05.973Z,69.50
2018-06-20T18:37:33.604Z,69.50
2018-06-20T18:40:01.964Z,69.70
2018-06-20T18:42:30.464Z,71.40
2018-06-20T18:44:58.020Z,71.40
2018-06-20T18:47:25.566Z,71.80
2018-06-20T18:49:53.124Z,72.00
2018-06-20T18:52:20.674Z,76.40
2018-06-20T18:54:48.255Z,77.50
2018-06-20T18:57:15.804Z,79.10
2018-06-20T19:02:57.133Z,81.50
2018-06-20T19:08:36.213Z,83.10
2018-06-20T19:11:04.822Z,85.80
2018-06-20T19:13:34.334Z,85.80
2018-06-20T19:16:01.881Z,86.40
2018-06-20T19:18:29.439Z,87.20
2018-06-20T19:20:56.987Z,88.10
2018-06-20T19:23:24.547Z,89.40
2018-06-20T19:25:52.860Z,91.10
2018-06-20T19:28:20.431Z,91.10
2018-06-20T19:30:47.996Z,91.50
2018-06-20T19:33:15.565Z,92.10
2018-06-20T19:35:44.005Z,92.70
2018-06-20T19:38:11.636Z,93.30
2018-06-20T19:40:39.239Z,93.60
2018-06-20T19:43:06.914Z,94.00
2018-06-20T19:45:34.551Z,94.50
2018-06-20T19:48:02.850Z,94.90
2018-06-20T19:50:30.418Z,95.10
2018-06-20T19:52:57.971Z,95.40
2018-06-20T19:55:26.486Z,95.80
2018-06-20T19:57:54.094Z,96.20
2018-06-20T20:00:21.861Z,96.60
2018-06-20T20:02:49.449Z,96.90
2018-06-20T20:05:17.051Z,97.10
2018-06-20T20:07:44.580Z,97.40
2018-06-20T20:10:12.416Z,97.60
2018-06-20T20:12:40.916Z,98.20
2018-06-20T20:15:08.457Z,98.20
2018-06-20T20:17:36.044Z,98.20
2018-06-20T20:20:03.873Z,98.50
2018-06-20T20:22:32.383Z,98.60
2018-06-20T20:25:00.105Z,98.70
2018-06-20T20:27:27.782Z,98.90
2018-06-20T20:29:55.317Z,98.80
2018-06-20T20:32:23.709Z,99.00
2018-06-20T20:34:51.893Z,99.10
2018-06-20T20:37:19.492Z,99.20
2018-06-20T20:39:47.089Z,99.00
2018-06-20T20:42:14.645Z,99.20
2018-06-20T20:44:42.222Z,99.70
2018-06-20T20:47:09.874Z,99.30
2018-06-20T20:49:39.529Z,99.10
2018-06-20T20:52:08.211Z,99.50
2018-06-20T20:54:36.048Z,99.90
2018-06-20T20:57:03.645Z,99.80
2018-06-20T20:59:31.214Z,99.90
2018-06-20T21:01:58.813Z,99.40
2018-06-20T21:04:26.338Z,99.30
2018-06-20T21:06:54.042Z,99.00
2018-06-20T21:09:21.600Z,99.10
2018-06-20T21:11:49.157Z,99.20
2018-06-20T21:14:16.710Z,98.90
2018-06-20T21:16:44.285Z,98.70
2018-06-20T21:19:11.855Z,98.80
2018-06-20T21:21:39.410Z,99.00
2018-06-20T21:24:07.096Z,99.10
2018-06-20T21:26:34.648Z,99.10
2018-06-20T21:29:02.172Z,99.20
2018-06-20T21:31:29.726Z,99.40
2018-06-20T21:33:58.638Z,99.50
2018-06-20T21:36:27.221Z,99.70
2018-06-20T21:38:54.776Z,99.80
2018-06-20T21:41:23.283Z,99.90
2018-06-20T21:43:50.849Z,99.90
2018-06-20T21:46:19.585Z,99.90
2018-06-20T21:48:47.191Z,99.90
2018-06-20T21:51:15.134Z,99.90
2018-06-20T21:53:43.707Z,99.90
2018-06-20T21:56:11.258Z,99.90
2018-06-20T21:58:38.798Z,99.90
2018-06-20T22:01:07.157Z,99.90
2018-06-20T22:03:34.723Z,99.90
2018-06-20T22:06:02.262Z,99.90
2018-06-20T22:08:29.819Z,99.90
2018-06-20T22:10:57.348Z,99.90
2018-06-20T22:13:25.894Z,99.90
2018-06-20T22:15:53.446Z,99.90
2018-06-20T22:18:21.017Z,99.90
2018-06-20T22:21:06.331Z,99.90
2018-06-20T22:23:33.897Z,99.90
2018-06-20T22:26:01.457Z,99.90
2018-06-20T22:28:28.975Z,99.90
2018-06-20T22:31:00.234Z,99.90
2018-06-20T22:33:27.833Z,99.90
2018-06-20T22:35:55.361Z,99.90
2018-06-20T22:38:24.875Z,99.90
2018-06-20T22:40:52.395Z,99.90
2018-06-20T22:43:19.959Z,99.90
2018-06-20T22:45:47.492Z,99.90
2018-06-20T22:48:15.021Z,99.90
2018-06-20T22:50:42.592Z,99.90
2018-06-20T22:53:10.128Z,99.90
2018-06-20T22:55:37.700Z,99.90
2018-06-20T22:58:05.246Z,99.90
2018-06-20T23:00:32.789Z,99.90
2018-06-20T23:03:00.367Z,99.90
2018-06-20T23:05:27.924Z,99.90
2018-06-20T23:07:55.474Z,99.90
2018-06-20T23:10:23.031Z,99.90
2018-06-20T23:12:52.552Z,99.90
2018-06-20T23:15:20.076Z,99.90
2018-06-20T23:17:48.371Z,99.90
2018-06-20T23:20:17.896Z,99.90
2018-06-20T23:22:45.452Z,99.90
2018-06-20T23:25:13.032Z,99.90
2018-06-20T23:27:41.520Z,99.90
2018-06-20T23:30:09.089Z,99.90
2018-06-20T23:32:36.638Z,99.90
2018-06-20T23:35:04.192Z,99.90
2018-06-20T23:37:31.772Z,99.90
2018-06-20T23:39:59.335Z,99.90
2018-06-20T23:42:28.662Z,99.90
2018-06-20T23:44:56.216Z,99.90
2018-06-20T23:47:24.518Z,99.90
2018-06-20T23:49:52.052Z,99.90
2018-06-20T23:52:20.384Z,99.90
2018-06-20T23:54:47.928Z,99.90
2018-06-20T23:57:15.493Z,99.90
2018-06-20T23:59:43.018Z,99.90
